Time;durP1;ratioP1;P1;durP2;ratioP2;P2;SDS_P1;SDS_P2;PMS_P1;PMS_P2;Temp;Humidity;BMP_temperature;BMP_pressure;BME280_temperature;BME280_humidity;BME280_pressure;Samples;Min_cycle;Max_cycle;Signal;HPM_P1;HPM_P2
2023/04/04 00:00:17;;;;;;;2.33;1.30;;;4.10;93.60;;;3.87;78.18;102257.38;5161987;28;20762;-82
2023/04/04 00:02:49;;;;;;;4.75;1.65;;;4.10;94.30;;;3.82;78.06;102262.16;5158698;28;20611;-82
2023/04/04 00:05:23;;;;;;;4.43;1.88;;;4.00;94.50;;;3.78;78.15;102260.06;5136043;28;20046;-82
2023/04/04 00:07:57;;;;;;;3.92;1.92;;;4.00;94.80;;;3.72;78.01;102257.91;5163810;28;20062;-82
2023/04/04 00:10:30;;;;;;;3.83;1.73;;;3.90;95.10;;;3.67;77.30;102256.59;5146054;28;20681;-82
2023/04/04 00:13:06;;;;;;;3.30;1.38;;;3.90;94.80;;;3.64;77.04;102258.00;5171034;28;20042;-82
2023/04/04 00:15:39;;;;;;;2.55;1.25;;;3.80;94.70;;;3.62;77.09;102260.44;5175113;28;20151;-82
2023/04/04 00:18:11;;;;;;;2.40;1.15;;;3.90;95.00;;;3.59;77.02;102254.13;5144477;28;20058;-81
2023/04/04 00:20:43;;;;;;;3.67;1.20;;;3.80;95.00;;;3.57;77.27;102248.81;5172047;28;20498;-83
2023/04/04 00:23:18;;;;;;;2.42;1.10;;;3.80;95.20;;;3.52;76.98;102240.72;5154559;28;20084;-82
2023/04/04 00:25:51;;;;;;;2.40;1.13;;;3.80;95.10;;;3.53;76.92;102249.34;5173356;28;20049;-82
2023/04/04 00:28:24;;;;;;;4.18;1.23;;;3.70;95.20;;;3.53;77.31;102251.94;5160985;28;20082;-82
2023/04/04 00:30:57;;;;;;;3.05;1.35;;;3.80;95.40;;;3.49;77.93;102250.75;5157149;28;20046;-81
2023/04/04 00:33:31;;;;;;;2.80;1.20;;;3.70;95.80;;;3.44;77.36;102257.19;5148522;28;20081;-82
2023/04/04 00:36:04;;;;;;;2.33;1.00;;;3.70;95.70;;;3.43;77.70;102250.22;5173538;28;20050;-82
2023/04/04 00:38:37;;;;;;;2.67;1.60;;;3.70;96.00;;;3.40;78.01;102251.66;5160553;28;20046;-82
2023/04/04 00:41:11;;;;;;;2.60;1.02;;;3.70;96.30;;;3.34;78.44;102249.44;5166162;28;20046;-81
2023/04/04 00:43:45;;;;;;;2.10;1.00;;;3.60;96.60;;;3.29;78.84;102255.84;5149681;28;20039;-81
2023/04/04 00:46:18;;;;;;;3.72;1.55;;;3.50;96.80;;;3.24;78.53;102258.03;5166079;28;20218;-82
2023/04/04 00:48:51;;;;;;;3.55;1.55;;;3.50;96.70;;;3.20;78.87;102257.66;5160130;28;20049;-81
2023/04/04 00:51:23;;;;;;;3.22;1.58;;;3.40;97.00;;;3.17;79.38;102250.53;5129911;28;20133;-81
2023/04/04 00:53:58;;;;;;;2.38;1.33;;;3.40;97.30;;;3.12;78.82;102261.19;5160835;28;20038;-82
2023/04/04 00:56:32;;;;;;;2.60;1.42;;;3.40;97.10;;;3.12;78.56;102261.19;5164899;28;20054;-82
2023/04/04 00:59:06;;;;;;;2.72;1.30;;;3.40;97.00;;;3.05;78.53;102259.75;5160320;28;20414;-80
2023/04/04 01:01:39;;;;;;;1.88;1.17;;;3.40;96.90;;;2.93;78.36;102257.03;5142460;28;20042;-82
2023/04/04 01:04:12;;;;;;;3.47;1.33;;;3.30;96.70;;;2.83;78.45;102269.84;5162553;28;20144;-82
2023/04/04 01:06:47;;;;;;;2.95;1.33;;;3.20;96.70;;;2.83;78.51;102267.28;5149603;28;20042;-81
2023/04/04 01:09:24;;;;;;;2.20;1.33;;;3.20;97.00;;;2.83;79.04;102269.84;5155403;28;20059;-82
2023/04/04 01:11:58;;;;;;;3.22;1.35;;;3.20;97.20;;;2.87;79.15;102269.38;5156679;28;20046;-82
2023/04/04 01:14:36;;;;;;;3.28;1.38;;;3.20;97.30;;;2.89;78.97;102272.97;5161461;28;20042;-81
2023/04/04 01:17:11;;;;;;;2.83;1.58;;;3.20;97.40;;;2.85;79.52;102265.72;5165445;28;20054;-82
2023/04/04 01:19:56;;;;;;;4.78;1.50;;;3.20;97.60;;;2.84;79.53;102266.50;5161988;28;20061;-82
2023/04/04 01:22:31;;;;;;;1.85;1.00;;;3.10;97.70;;;2.81;79.83;102261.09;5175469;28;20064;-83
2023/04/04 01:25:07;;;;;;;2.20;1.23;;;3.10;97.90;;;2.83;79.82;102261.22;5155552;28;20498;-82
2023/04/04 01:27:45;;;;;;;3.88;1.40;;;3.20;98.10;;;2.80;80.22;102266.97;5165238;28;20054;-81
2023/04/04 01:30:20;;;;;;;3.72;1.23;;;3.20;98.20;;;2.81;80.46;102261.09;5132700;28;20050;-83
2023/04/04 01:32:59;;;;;;;2.72;1.20;;;3.10;98.40;;;2.82;80.16;102257.75;5154636;28;20141;-82
2023/04/04 01:35:41;;;;;;;2.03;1.20;;;3.10;98.60;;;2.82;80.50;102255.16;5155998;28;20138;-82
2023/04/04 01:38:23;;;;;;;3.33;1.20;;;3.10;98.60;;;2.77;79.98;102261.56;5147049;28;20129;-81
2023/04/04 01:41:05;;;;;;;1.75;1.27;;;3.10;98.60;;;2.75;80.33;102259.66;5171031;28;20069;-82
2023/04/04 01:43:45;;;;;;;2.78;1.42;;;3.00;98.70;;;2.73;80.65;102254.31;5171172;28;20042;-81
2023/04/04 01:46:19;;;;;;;2.03;1.25;;;3.10;98.80;;;2.71;80.95;102261.03;5177361;28;20103;-82
2023/04/04 01:48:54;;;;;;;4.03;1.40;;;3.00;98.90;;;2.68;80.64;102253.03;5163295;28;20038;-82
2023/04/04 01:51:37;;;;;;;;;;;3.00;98.90;;;2.65;80.87;102256.22;5157047;28;20069;-81
2023/04/04 01:54:11;;;;;;;1.95;1.35;;;3.00;99.00;;;2.60;80.48;102248.84;5137871;28;20378;-82
2023/04/04 01:56:44;;;;;;;6.88;1.77;;;2.90;99.00;;;2.54;81.13;102243.16;5131147;28;20050;-82
2023/04/04 01:59:18;;;;;;;3.88;1.38;;;2.90;99.10;;;2.54;80.77;102245.72;5131224;28;20057;-81
2023/04/04 02:01:51;;;;;;;4.07;1.58;;;2.90;99.10;;;2.55;81.66;102252.72;5149346;28;20054;-82
2023/04/04 02:04:25;;;;;;;2.10;1.35;;;3.00;99.50;;;2.51;80.94;102251.50;5151846;28;20042;-82
2023/04/04 02:06:58;;;;;;;3.92;1.33;;;2.90;99.30;;;2.50;81.47;102246.22;5154070;28;20125;-81
2023/04/04 02:09:33;;;;;;;4.07;1.05;;;2.90;99.50;;;2.51;81.23;102240.31;5154207;28;20383;-81
2023/04/04 02:12:08;;;;;;;;;;;2.90;99.50;;;2.52;81.33;102242.13;5163851;28;20057;-81
2023/04/04 02:14:42;;;;;;;2.88;1.15;;;2.80;99.50;;;2.50;81.40;102230.78;5170334;28;19921;-82
2023/04/04 02:17:17;;;;;;;2.33;1.08;;;2.80;99.60;;;2.49;81.62;102242.75;5147160;28;20404;-81
2023/04/04 02:19:51;;;;;;;4.40;1.10;;;2.80;99.80;;;2.44;81.64;102244.91;5162487;28;20046;-82
2023/04/04 02:22:24;;;;;;;2.63;1.23;;;2.80;99.90;;;2.43;82.13;102244.78;5153673;28;20061;-82
2023/04/04 02:24:59;;;;;;;1.48;1.08;;;2.80;99.90;;;2.40;81.96;102241.91;5147117;28;20067;-81
2023/04/04 02:27:33;;;;;;;3.90;1.23;;;2.70;99.90;;;2.38;81.65;102244.34;5130785;28;20058;-82
2023/04/04 02:30:10;;;;;;;2.17;1.52;;;2.70;99.90;;;2.37;82.04;102241.66;5155621;28;20141;-82
2023/04/04 02:32:44;;;;;;;3.53;1.70;;;2.70;99.90;;;2.37;81.84;102223.63;5170503;28;20046;-82
2023/04/04 02:35:20;;;;;;;4.47;2.38;;;2.70;99.90;;;2.35;81.97;102238.94;5163284;28;20425;-81
2023/04/04 02:37:53;;;;;;;3.47;2.25;;;2.70;99.90;;;2.35;81.87;102238.94;5170797;28;20054;-83
2023/04/04 02:40:29;;;;;;;3.42;1.98;;;2.70;99.90;;;2.35;81.96;102236.38;5170530;28;20050;-81
2023/04/04 02:43:02;;;;;;;2.95;1.80;;;2.70;99.90;;;2.34;82.47;102231.06;5153676;28;20050;-81
2023/04/04 02:45:36;;;;;;;4.95;1.83;;;2.70;99.90;;;2.30;82.92;102232.47;5170875;28;20057;-81
2023/04/04 02:48:27;;;;;;;5.35;1.80;;;2.60;99.90;;;2.25;82.41;102225.09;5168949;28;20057;-82
2023/04/04 02:51:05;;;;;;;4.57;1.85;;;2.60;99.90;;;2.25;82.65;102227.66;5166982;28;20058;-82
2023/04/04 02:53:39;;;;;;;5.85;2.05;;;2.60;99.90;;;2.22;83.24;102215.44;5165569;28;20045;-82
2023/04/04 02:56:35;;;;;;;;;;;2.50;99.90;;;2.24;83.06;102218.16;5170886;28;20128;-82
2023/04/04 02:59:09;;;;;;;4.53;1.98;;;2.50;99.90;;;2.21;83.08;102213.59;5142751;28;19925;-82
2023/04/04 03:01:42;;;;;;;5.03;2.33;;;2.50;99.90;;;2.17;83.05;102214.13;5174291;28;20050;-82
2023/04/04 03:04:18;;;;;;;5.30;2.70;;;2.50;99.90;;;2.15;82.77;102208.84;5144714;28;20138;-83
2023/04/04 03:06:54;;;;;;;5.55;2.60;;;2.50;99.90;;;2.14;82.85;102204.44;5169772;28;20406;-82
2023/04/04 03:09:27;;;;;;;3.97;1.70;;;2.50;99.90;;;2.12;83.32;102208.53;5177468;28;20135;-82
2023/04/04 03:12:01;;;;;;;4.47;2.33;;;2.50;99.90;;;2.09;83.82;102212.53;5147057;28;20038;-84
2023/04/04 03:14:34;;;;;;;5.05;1.70;;;2.40;99.90;;;2.08;83.82;102210.69;5130884;28;20050;-83
2023/04/04 03:17:09;;;;;;;3.17;1.60;;;2.40;99.90;;;2.06;83.64;102207.97;5166424;28;20112;-82
2023/04/04 03:19:42;;;;;;;5.13;2.00;;;2.40;99.90;;;2.05;84.21;102211.31;5173654;28;20056;-82
2023/04/04 03:22:14;;;;;;;5.07;2.25;;;2.40;99.90;;;1.98;83.89;102210.63;5174184;28;20046;-82
2023/04/04 03:24:47;;;;;;;5.35;2.50;;;2.30;99.90;;;1.92;83.11;102222.94;5174913;28;20107;-83
2023/04/04 03:27:21;;;;;;;6.63;3.25;;;2.30;99.90;;;1.94;84.01;102216.25;5182693;28;20410;-82
2023/04/04 03:29:53;;;;;;;5.40;2.90;;;2.30;99.90;;;1.95;84.16;102215.47;5165036;28;20140;-83
2023/04/04 03:32:28;;;;;;;6.60;3.10;;;2.30;99.90;;;1.96;83.99;102218.22;5151088;28;20426;-82
2023/04/04 03:35:00;;;;;;;5.63;2.40;;;2.30;99.90;;;1.94;84.28;102218.81;5124744;28;20053;-83
2023/04/04 03:37:33;;;;;;;6.63;2.20;;;2.30;99.90;;;1.92;83.92;102218.69;5146443;28;20053;-81
2023/04/04 03:40:08;;;;;;;3.28;1.58;;;2.20;99.90;;;1.84;83.78;102212.84;5169341;28;20573;-83
2023/04/04 03:42:40;;;;;;;2.55;1.52;;;2.20;99.90;;;1.83;84.41;102213.59;5170433;28;20056;-83
2023/04/04 03:45:16;;;;;;;;;;;2.20;99.90;;;1.79;83.96;102215.75;5168835;28;20451;-82
2023/04/04 03:47:51;;;;;;;1.92;1.10;;;2.10;99.90;;;1.78;84.26;102214.84;5154833;28;20316;-83
2023/04/04 03:50:26;;;;;;;3.72;1.33;;;2.10;99.90;;;1.77;84.74;102220.75;5175169;28;20524;-83
2023/04/04 03:52:58;;;;;;;3.17;1.30;;;2.10;99.90;;;1.75;84.62;102218.78;5149891;28;20132;-82
2023/04/04 03:55:31;;;;;;;5.47;1.70;;;2.10;99.90;;;1.70;84.88;102220.06;5167466;28;20503;-83
2023/04/04 03:58:05;;;;;;;2.38;1.38;;;2.00;99.90;;;1.70;84.94;102210.66;5153634;28;20617;-83
2023/04/04 04:00:38;;;;;;;1.38;1.10;;;2.00;99.90;;;1.72;84.72;102213.38;5145818;28;20113;-83
2023/04/04 04:03:11;;;;;;;3.10;1.60;;;2.10;99.90;;;1.69;84.94;102219.13;5195563;23;20056;-80
2023/04/04 04:05:43;;;;;;;2.72;1.73;;;2.00;99.90;;;1.68;85.14;102208.69;5186945;28;20447;-80
2023/04/04 04:08:16;;;;;;;2.97;1.35;;;2.00;99.90;;;1.67;84.96;102210.38;5192528;28;20045;-81
2023/04/04 04:10:48;;;;;;;3.35;1.38;;;2.00;99.90;;;1.66;85.38;102208.56;5196103;28;20048;-81
2023/04/04 04:13:20;;;;;;;3.78;1.20;;;2.00;99.90;;;1.64;85.27;102207.53;5201376;28;20056;-79
2023/04/04 04:15:54;;;;;;;2.42;1.35;;;2.00;99.90;;;1.65;85.24;102206.75;5192039;28;20050;-81
2023/04/04 04:18:30;;;;;;;2.30;1.30;;;2.00;99.90;;;1.64;85.10;102204.97;5201818;28;20081;-79
2023/04/04 04:21:03;;;;;;;3.05;1.50;;;2.00;99.90;;;1.62;85.55;102198.75;5197599;28;20041;-82
2023/04/04 04:23:37;;;;;;;2.33;1.50;;;2.00;99.90;;;1.59;85.62;102198.47;5207736;28;20049;-79
2023/04/04 04:26:09;;;;;;;3.13;1.33;;;2.00;99.90;;;1.58;85.58;102194.09;5188353;28;20050;-80
2023/04/04 04:28:41;;;;;;;4.38;1.63;;;1.90;99.90;;;1.58;85.15;102195.00;5196101;28;20057;-80
2023/04/04 04:31:18;;;;;;;2.13;1.30;;;1.90;99.90;;;1.59;85.51;102193.34;5197567;28;20045;-80
2023/04/04 04:33:55;;;;;;;2.97;1.25;;;1.90;99.90;;;1.58;85.92;102188.97;5195767;28;20131;-80
2023/04/04 04:36:32;;;;;;;4.38;1.80;;;1.90;99.90;;;1.56;86.12;102190.47;5196575;28;20045;-80
2023/04/04 04:39:19;;;;;;;2.28;1.38;;;1.90;99.90;;;1.54;85.30;102184.28;5190427;28;20139;-81
2023/04/04 04:42:06;;;;;;;3.72;1.60;;;1.90;99.90;;;1.53;85.66;102190.19;5198661;28;20050;-81
2023/04/04 04:44:41;;;;;;;2.28;1.17;;;1.80;99.90;;;1.52;85.72;102181.59;5191923;28;20069;-80
2023/04/04 04:47:13;;;;;;;2.65;1.58;;;1.90;99.90;;;1.51;86.31;102178.88;5206941;28;20054;-81
2023/04/04 04:49:48;;;;;;;1.88;1.23;;;1.90;99.90;;;1.48;86.47;102182.03;5191919;28;20126;-80
2023/04/04 04:52:23;;;;;;;2.53;1.42;;;1.80;99.90;;;1.50;86.09;102189.91;5202397;28;20045;-80
2023/04/04 04:54:55;;;;;;;2.00;1.00;;;1.80;99.90;;;1.49;86.23;102188.09;5191142;28;20046;-82
2023/04/04 04:57:28;;;;;;;4.05;1.35;;;1.80;99.90;;;1.46;86.72;102192.97;5189068;28;20042;-81
2023/04/04 05:00:04;;;;;;;3.03;1.30;;;1.80;99.90;;;1.43;86.65;102188.41;5199230;28;20054;-81
2023/04/04 05:02:36;;;;;;;2.58;1.45;;;1.80;99.90;;;1.38;86.72;102193.91;5194360;28;20146;-81
2023/04/04 05:05:10;;;;;;;4.10;1.58;;;1.80;99.90;;;1.40;86.48;102192.38;5205112;28;20045;-81
2023/04/04 05:07:46;;;;;;;2.10;1.10;;;1.70;99.90;;;1.39;86.69;102198.28;5193225;28;20100;-81
2023/04/04 05:10:18;;;;;;;;;;;1.70;99.90;;;1.36;86.66;102197.22;5200857;28;20045;-81
2023/04/04 05:12:50;;;;;;;3.63;1.85;;;1.70;99.90;;;1.34;86.48;102196.19;5192654;28;19989;-81
2023/04/04 05:15:28;;;;;;;2.78;1.27;;;1.70;99.90;;;1.33;86.41;102201.19;5193297;28;20046;-81
2023/04/04 05:18:00;;;;;;;3.22;1.70;;;1.70;99.90;;;1.34;86.25;102203.00;5193164;28;20097;-81
2023/04/04 05:20:34;;;;;;;3.15;1.80;;;1.70;99.90;;;1.32;86.06;102194.25;5191341;28;20455;-81
2023/04/04 05:23:08;;;;;;;2.58;1.52;;;1.70;99.90;;;1.31;86.23;102192.44;5190926;28;20046;-81
2023/04/04 05:25:44;;;;;;;7.53;1.80;;;1.70;99.90;;;1.33;86.24;102194.38;5194246;28;20053;-81
2023/04/04 05:28:17;;;;;;;3.42;1.70;;;1.70;99.90;;;1.30;85.72;102194.09;5200227;28;20679;-80
2023/04/04 05:30:49;;;;;;;2.17;1.50;;;1.70;99.90;;;1.31;85.99;102190.78;5210183;28;20068;-80
2023/04/04 05:33:25;;;;;;;4.45;1.70;;;1.70;99.90;;;1.34;86.21;102203.00;5198424;28;20061;-81
2023/04/04 05:36:22;;;;;;;2.45;1.25;;;1.70;99.90;;;1.35;86.61;102210.84;5185894;28;20049;-80
2023/04/04 05:39:03;;;;;;;4.25;1.65;;;1.70;99.90;;;1.36;87.28;102207.50;5200074;28;20046;-80
2023/04/04 05:41:37;;;;;;;4.28;1.85;;;1.80;99.90;;;1.40;87.26;102216.41;5191897;28;20073;-80
2023/04/04 05:44:17;;;;;;;2.40;1.02;;;1.70;99.90;;;1.42;87.53;102211.41;5198614;28;20075;-80
2023/04/04 05:46:49;;;;;;;2.75;1.33;;;1.80;99.90;;;1.44;88.24;102220.19;5199195;28;20042;-81
2023/04/04 05:49:21;;;;;;;5.32;1.48;;;1.80;99.90;;;1.49;88.52;102216.38;5209288;28;20076;-82
2023/04/04 05:52:02;;;;;;;2.78;1.40;;;1.80;99.90;;;1.55;87.81;102216.94;5193939;28;20049;-81
2023/04/04 05:54:36;;;;;;;2.53;1.42;;;1.90;99.90;;;1.60;88.03;102213.13;5200384;28;20052;-81
2023/04/04 05:57:13;;;;;;;2.00;1.23;;;1.90;99.90;;;1.64;87.44;102217.81;5183153;28;20096;-80
2023/04/04 05:59:49;;;;;;;4.65;1.30;;;2.00;99.90;;;1.66;87.20;102224.00;5187641;28;20066;-77
2023/04/04 06:02:22;;;;;;;1.95;1.17;;;2.00;99.90;;;1.70;87.58;102223.53;5188363;28;20099;-80
2023/04/04 06:04:59;;;;;;;3.28;1.60;;;2.00;99.90;;;1.75;87.07;102234.22;5205656;28;20121;-81
2023/04/04 06:07:44;;;;;;;2.28;1.40;;;2.10;99.90;;;1.78;87.50;102235.41;5195353;28;20054;-84
2023/04/04 06:10:17;;;;;;;2.10;1.50;;;2.10;99.90;;;1.86;87.38;102234.44;5201209;28;20050;-84
2023/04/04 06:12:50;;;;;;;3.63;1.30;;;2.20;99.90;;;1.93;87.14;102235.00;5206883;28;20048;-84
2023/04/04 06:15:23;;;;;;;3.22;1.50;;;2.30;99.90;;;1.97;86.26;102238.03;5196220;28;20049;-82
2023/04/04 06:17:56;;;;;;;2.25;1.27;;;2.30;99.90;;;2.08;85.93;102244.13;5198528;28;20109;-84
2023/04/04 06:20:29;;;;;;;5.30;1.42;;;2.40;99.90;;;2.21;85.95;102247.06;5203060;28;20046;-84
2023/04/04 06:23:03;;;;;;;2.75;1.48;;;2.50;99.90;;;3.56;86.86;102238.38;5195295;28;20049;-84
2023/04/04 06:25:37;;;;;;;4.00;1.80;;;3.20;99.90;;;5.99;79.92;102246.09;5202731;28;20042;-85
2023/04/04 06:28:10;;;;;;;3.22;1.25;;;4.80;99.90;;;8.53;71.01;102248.66;5197738;28;20045;-85
2023/04/04 06:30:44;;;;;;;3.58;1.40;;;6.70;99.50;;;10.32;63.63;102251.28;5206499;28;20050;-85
2023/04/04 06:33:17;;;;;;;3.30;1.50;;;8.50;93.20;;;11.26;58.56;102244.44;5186762;28;20099;-84
2023/04/04 06:35:52;;;;;;;3.22;1.50;;;9.70;84.90;;;11.97;55.58;102243.03;5193567;28;20049;-85
2023/04/04 06:38:28;;;;;;;3.85;1.20;;;10.50;77.10;;;12.74;52.90;102243.47;5203378;28;20553;-86
2023/04/04 06:41:01;;;;;;;2.08;1.38;;;11.30;72.10;;;12.44;50.41;102242.84;5202011;28;20506;-81
2023/04/04 06:43:34;;;;;;;3.20;1.35;;;11.50;66.00;;;12.28;51.03;102250.75;5195123;28;20045;-86
2023/04/04 06:46:06;;;;;;;4.15;2.00;;;11.50;66.10;;;12.22;51.58;102252.22;5201768;28;20447;-87
2023/04/04 06:48:39;;;;;;;2.83;1.30;;;11.40;66.10;;;12.50;51.22;102258.84;5202422;28;20049;-85
2023/04/04 06:51:11;;;;;;;3.45;1.35;;;11.60;65.80;;;12.90;50.52;102260.81;5201817;28;20053;-86
2023/04/04 06:53:50;;;;;;;3.58;1.73;;;11.80;65.00;;;13.73;49.44;102263.00;5193345;28;20052;-85
2023/04/04 06:56:23;;;;;;;3.17;1.48;;;12.40;64.10;;;14.76;47.67;102266.63;5201023;28;20046;-85
2023/04/04 06:58:55;;;;;;;3.08;1.52;;;13.20;62.50;;;15.57;46.25;102258.41;5190028;28;20046;-85
2023/04/04 07:01:27;;;;;;;3.85;1.45;;;14.00;60.50;;;15.99;44.98;102275.81;5191615;28;20074;-84
2023/04/04 07:03:59;;;;;;;2.20;1.17;;;14.50;58.50;;;15.75;44.35;102264.38;5205878;28;20053;-84
2023/04/04 07:06:31;;;;;;;2.83;1.17;;;14.60;57.00;;;14.97;45.22;102271.84;5193352;28;20046;-81
2023/04/04 07:09:05;;;;;;;2.80;1.27;;;14.20;56.80;;;13.99;45.82;102270.31;5192925;28;20077;-85
2023/04/04 07:11:37;;;;;;;2.90;1.38;;;13.60;56.90;;;12.43;46.87;102277.66;5209113;28;20148;-84
2023/04/04 07:14:09;;;;;;;2.60;1.20;;;12.40;57.20;;;11.46;49.23;102270.75;5197632;28;20598;-85
2023/04/04 07:16:41;;;;;;;3.35;1.50;;;11.50;59.10;;;10.59;50.91;102272.88;5194533;28;20046;-86
2023/04/04 07:19:13;;;;;;;4.07;1.50;;;10.80;60.40;;;9.82;52.74;102275.97;5203417;28;20059;-86
2023/04/04 07:21:45;;;;;;;1.50;1.02;;;10.10;62.10;;;9.37;53.78;102269.72;5209256;28;20056;-83
2023/04/04 07:24:21;;;;;;;4.05;0.93;;;9.60;63.60;;;9.60;71.35;102281.59;5203517;28;20041;-80
2023/04/04 07:26:54;;;;;;;3.50;1.30;;;9.60;85.80;;;10.26;61.97;102283.91;5195355;28;20416;-85
2023/04/04 07:29:26;;;;;;;1.95;1.20;;;10.20;81.30;;;10.23;56.21;102275.91;5196584;28;20060;-85
2023/04/04 07:31:58;;;;;;;2.92;1.40;;;10.10;71.00;;;10.47;54.93;102281.69;5202710;28;20054;-86
2023/04/04 07:34:30;;;;;;;2.13;1.38;;;10.20;69.10;;;10.90;53.99;102278.94;5201364;28;20045;-84
2023/04/04 07:37:02;;;;;;;3.17;1.20;;;10.50;68.20;;;11.61;52.69;102280.34;5206227;28;20029;-85
2023/04/04 07:39:35;;;;;;;3.95;1.50;;;10.90;66.90;;;12.20;51.59;102277.41;5196873;28;20128;-86
2023/04/04 07:42:08;;;;;;;2.17;1.27;;;11.40;65.50;;;12.82;49.09;102283.09;5190652;28;20056;-85
2023/04/04 07:44:40;;;;;;;2.80;1.13;;;11.90;62.60;;;13.24;48.01;102284.31;5190652;28;20512;-85
2023/04/04 07:47:12;;;;;;;4.05;1.40;;;12.40;61.00;;;13.49;47.49;102288.97;5192411;28;20067;-84
2023/04/04 07:49:44;;;;;;;3.58;1.30;;;12.60;60.10;;;13.94;49.33;102278.78;5191381;28;20046;-83
2023/04/04 07:52:16;;;;;;;3.55;1.15;;;12.90;62.20;;;14.48;47.85;102282.06;5189758;28;20041;-85
2023/04/04 07:54:50;;;;;;;1.98;1.10;;;13.20;61.10;;;15.39;45.95;102280.53;5198040;28;20048;-83
2023/04/04 07:57:22;;;;;;;2.17;1.40;;;13.80;60.10;;;16.15;43.03;102273.72;5192662;28;20038;-86
2023/04/04 07:59:55;;;;;;;2.67;1.30;;;14.40;56.30;;;16.72;41.91;102273.97;5199763;28;20046;-85
2023/04/04 08:02:27;;;;;;;2.20;1.00;;;14.70;55.10;;;17.24;41.25;102267.72;5190646;28;20081;-86
2023/04/04 08:04:59;;;;;;;2.78;1.20;;;15.00;54.40;;;17.83;40.24;102271.25;5189597;28;20049;-85
2023/04/04 08:07:32;;;;;;;2.30;1.08;;;15.50;53.60;;;18.33;39.25;102271.78;5195149;28;20042;-86
2023/04/04 08:10:08;;;;;;;1.48;1.00;;;15.90;52.60;;;18.88;43.28;102274.06;5197466;28;20061;-83
2023/04/04 08:12:40;;;;;;;1.15;0.88;;;16.30;56.60;;;19.57;40.33;102269.47;5197604;28;20064;-80
2023/04/04 08:15:12;;;;;;;2.25;1.10;;;16.90;53.80;;;20.33;38.67;102266.56;5190404;28;20137;-82
2023/04/04 08:17:44;;;;;;;5.82;0.98;;;17.50;52.20;;;20.99;37.53;102274.75;5193078;28;20085;-84
2023/04/04 08:20:17;;;;;;;2.45;1.30;;;18.20;51.70;;;21.14;34.32;102262.63;5202246;28;20049;-87
2023/04/04 08:22:49;;;;;;;2.42;1.27;;;18.30;47.80;;;21.61;33.43;102267.72;5201797;28;20454;-87
2023/04/04 08:25:22;;;;;;;2.35;1.30;;;18.80;47.10;;;21.99;31.71;102266.41;5193852;28;20046;-87
2023/04/04 08:27:55;;;;;;;3.00;1.63;;;19.20;45.40;;;22.07;30.30;102272.66;5193013;28;20054;-86
2023/04/04 08:30:27;;;;;;;1.98;1.33;;;19.30;43.70;;;20.97;30.10;102263.25;5189537;28;20136;-87
2023/04/04 08:32:59;;;;;;;2.05;1.55;;;18.60;43.10;;;20.58;29.95;102253.78;5192514;28;20037;-87
2023/04/04 08:35:31;;;;;;;3.88;1.45;;;18.30;42.90;;;19.64;30.74;102256.44;5195863;28;20064;-87
2023/04/04 08:38:07;;;;;;;4.28;1.85;;;17.70;43.40;;;18.79;31.38;102249.19;5201994;28;20512;-86
2023/04/04 08:40:40;;;;;;;3.83;2.20;;;17.00;43.80;;;18.69;31.89;102250.69;5197683;28;20049;-88
2023/04/04 08:43:14;;;;;;;2.85;1.75;;;16.70;44.50;;;19.02;31.82;102252.34;5190316;28;20496;-89
2023/04/04 08:45:49;;;;;;;4.07;1.80;;;16.70;44.80;;;18.65;32.21;102239.16;5194215;28;20044;-88
2023/04/04 08:48:25;;;;;;;3.33;2.00;;;16.50;45.20;;;17.37;33.63;102243.53;5183260;28;20042;-86
2023/04/04 08:51:00;;;;;;;2.25;2.05;;;15.70;45.90;;;17.12;34.17;102233.09;5189968;28;20042;-85
2023/04/04 08:53:34;;;;;;;3.10;2.10;;;15.40;46.40;;;17.05;33.89;102240.78;5201509;28;20049;-82
2023/04/04 08:56:09;;;;;;;2.95;1.55;;;15.30;46.60;;;17.40;33.47;102242.72;5190055;28;20047;-84
2023/04/04 08:58:41;;;;;;;4.22;1.95;;;15.40;46.40;;;17.83;32.92;102229.06;5210861;28;20499;-84
2023/04/04 09:01:15;;;;;;;2.72;1.50;;;15.70;46.00;;;17.96;33.12;102227.66;5202715;28;20056;-84
2023/04/04 09:03:49;;;;;;;3.70;2.40;;;15.90;46.20;;;16.95;33.86;102235.19;5192007;28;20045;-85
2023/04/04 09:06:21;;;;;;;4.97;2.28;;;15.40;46.10;;;16.70;34.06;102236.16;5184207;28;20133;-84
2023/04/04 09:08:53;;;;;;;2.63;1.98;;;15.30;46.50;;;16.83;34.82;102230.44;5201801;28;20506;-84
2023/04/04 09:11:30;;;;;;;3.22;2.00;;;15.40;47.00;;;16.76;35.31;102229.34;5195330;28;20046;-84
2023/04/04 09:14:03;;;;;;;2.95;1.80;;;15.50;47.10;;;16.20;34.74;102230.06;5197333;28;20041;-85
2023/04/04 09:16:35;;;;;;;2.70;1.92;;;15.30;46.10;;;15.67;35.27;102232.56;5198711;28;20033;-85
2023/04/04 09:19:07;;;;;;;4.00;1.95;;;15.10;46.50;;;15.06;35.94;102234.53;5191456;28;20060;-82
2023/04/04 09:21:39;;;;;;;3.40;2.38;;;14.70;47.00;;;14.50;36.73;102226.19;5192024;28;20463;-84
2023/04/04 09:24:11;;;;;;;3.65;2.20;;;14.30;47.30;;;13.93;37.67;102235.94;5198556;28;20054;-85
2023/04/04 09:26:50;;;;;;;3.00;1.83;;;13.80;47.80;;;13.67;38.78;102229.56;5198590;28;20053;-83
2023/04/04 09:29:22;;;;;;;4.05;2.15;;;13.60;49.10;;;13.17;38.81;102227.19;5183261;28;20034;-85
2023/04/04 09:31:55;;;;;;;3.92;1.85;;;13.10;48.90;;;13.01;39.50;102222.97;5190688;28;20592;-83
2023/04/04 09:34:29;;;;;;;2.50;1.88;;;13.00;49.80;;;12.93;40.21;102227.84;5197724;28;20046;-84
2023/04/04 09:37:04;;;;;;;2.50;1.63;;;12.80;50.50;;;12.91;42.86;102215.47;5189582;28;20507;-84
2023/04/04 09:39:40;;;;;;;5.53;1.90;;;12.70;53.50;;;13.04;43.38;102223.13;5187707;28;20042;-84
2023/04/04 09:42:15;;;;;;;4.97;2.20;;;12.80;53.50;;;13.06;42.25;102226.69;5194847;28;20084;-82
2023/04/04 09:44:47;;;;;;;4.55;2.33;;;12.80;52.30;;;13.26;41.17;102215.47;5187482;28;20041;-85
2023/04/04 09:47:27;;;;;;;4.20;2.38;;;13.00;52.00;;;13.33;40.70;102223.63;5190478;28;20125;-83
2023/04/04 09:50:00;;;;;;;5.70;2.95;;;13.10;51.10;;;12.62;39.90;102217.59;5191533;28;20481;-86
2023/04/04 09:52:34;;;;;;;3.78;1.90;;;12.70;49.80;;;12.11;40.59;102215.88;5195442;28;20472;-83
2023/04/04 09:55:07;;;;;;;3.10;1.98;;;12.30;50.30;;;12.24;42.37;102215.69;5198785;28;20056;-86
2023/04/04 09:57:41;;;;;;;2.95;1.75;;;12.20;52.30;;;12.62;42.57;102212.38;5187268;28;20041;-85
2023/04/04 10:00:20;;;;;;;4.82;2.50;;;12.40;52.70;;;12.75;41.25;102211.25;5198643;28;20133;-84
2023/04/04 10:02:57;;;;;;;4.25;2.20;;;12.60;51.70;;;12.74;42.37;102210.34;5243289;23;20049;-56
2023/04/04 10:05:29;;;;;;;2.55;1.80;;;12.60;52.60;;;12.84;42.28;102218.63;5184861;28;20046;-58
2023/04/04 10:08:15;;;;;;;3.65;1.95;;;12.60;53.20;;;12.85;41.84;102216.13;5184708;28;20048;-57
2023/04/04 10:10:48;;;;;;;3.35;1.75;;;12.60;52.10;;;12.87;41.37;102208.31;5183269;28;20100;-57
2023/04/04 10:13:27;;;;;;;2.80;1.65;;;12.60;52.00;;;13.03;41.59;102201.25;5184818;28;20108;-56
2023/04/04 10:16:00;;;;;;;4.35;2.10;;;12.70;52.10;;;13.02;39.92;102198.56;5184824;28;20108;-58
2023/04/04 10:18:34;;;;;;;3.75;1.88;;;12.80;50.80;;;13.02;40.98;102191.63;5184315;28;20073;-58
2023/04/04 10:21:08;;;;;;;2.90;2.15;;;12.80;51.70;;;12.90;39.70;102198.00;5184422;28;20054;-59
2023/04/04 10:23:42;;;;;;;3.55;2.00;;;12.70;50.60;;;12.29;40.72;102195.91;5184305;28;20046;-59
2023/04/04 10:26:15;;;;;;;4.55;2.00;;;12.30;50.90;;;12.06;41.91;102201.69;5184248;28;20044;-58
2023/04/04 10:28:49;;;;;;;3.10;2.00;;;12.10;52.00;;;12.07;42.60;102183.50;5184274;28;20042;-58
2023/04/04 10:31:23;;;;;;;3.83;2.03;;;12.00;52.60;;;12.29;42.68;102195.00;5183947;28;20521;-58
2023/04/04 10:34:11;;;;;;;3.17;1.75;;;12.10;53.00;;;12.38;42.89;102185.91;5198036;28;20050;-62
2023/04/04 10:36:46;;;;;;;3.75;1.83;;;12.20;54.70;;;12.18;42.77;102171.84;5182148;28;20054;-61
2023/04/04 10:39:26;;;;;;;2.70;1.90;;;12.10;53.00;;;12.44;43.66;102178.34;5198176;28;20038;-60
2023/04/04 10:42:00;;;;;;;5.15;2.40;;;12.30;53.80;;;12.38;40.98;102175.44;5183923;28;20414;-58
2023/04/04 10:44:38;;;;;;;1.92;1.33;;;12.40;52.00;;;12.49;51.08;102173.34;5182747;28;20050;-58
2023/04/04 10:47:18;;;;;;;3.40;1.63;;;12.40;63.10;;;12.97;48.81;102171.28;5184099;28;20049;-57
2023/04/04 10:49:52;;;;;;;2.97;2.00;;;12.90;60.10;;;13.23;42.06;102170.78;5184275;28;20041;-57
2023/04/04 10:52:27;;;;;;;2.70;1.90;;;13.10;52.40;;;13.37;41.75;102170.56;5184173;28;20050;-57